sensor_id;sensor_type;location;lat;lon;timestamp;pressure;altitude;pressure_sealevel;temperature;humidity
9740;BME280;4909;42.680;26.324;2023-04-24T00:01:56;98525.38;;;12.21;70.79
9740;BME280;4909;42.680;26.324;2023-04-24T00:04:23;98510.16;;;12.07;71.44
9740;BME280;4909;42.680;26.324;2023-04-24T00:06:52;98526.09;;;12.25;70.55
9740;BME280;4909;42.680;26.324;2023-04-24T00:09:22;98509.75;;;12.15;71.45
9740;BME280;4909;42.680;26.324;2023-04-24T00:11:49;98499.81;;;12.18;70.07
9740;BME280;4909;42.680;26.324;2023-04-24T00:14:16;98512.88;;;12.23;70.09
9740;BME280;4909;42.680;26.324;2023-04-24T00:16:43;98510.34;;;12.20;70.08
9740;BME280;4909;42.680;26.324;2023-04-24T00:19:10;98514.13;;;12.16;70.34
9740;BME280;4909;42.680;26.324;2023-04-24T00:21:38;98514.84;;;12.19;69.98
9740;BME280;4909;42.680;26.324;2023-04-24T00:24:06;98510.97;;;12.25;69.22
9740;BME280;4909;42.680;26.324;2023-04-24T00:26:34;98507.91;;;12.00;71.12
9740;BME280;4909;42.680;26.324;2023-04-24T00:29:01;98494.59;;;11.83;70.84
9740;BME280;4909;42.680;26.324;2023-04-24T00:31:28;98503.13;;;11.89;71.52
9740;BME280;4909;42.680;26.324;2023-04-24T00:33:55;98507.66;;;11.87;71.71
9740;BME280;4909;42.680;26.324;2023-04-24T00:36:21;98499.75;;;12.03;71.42
9740;BME280;4909;42.680;26.324;2023-04-24T00:38:48;98505.94;;;12.03;70.18
9740;BME280;4909;42.680;26.324;2023-04-24T00:41:17;98508.91;;;11.97;71.50
9740;BME280;4909;42.680;26.324;2023-04-24T00:43:44;98506.47;;;12.10;70.08
9740;BME280;4909;42.680;26.324;2023-04-24T00:46:11;98452.31;;;11.78;70.32
9740;BME280;4909;42.680;26.324;2023-04-24T00:48:39;98496.22;;;12.02;70.02
9740;BME280;4909;42.680;26.324;2023-04-24T00:51:06;98482.38;;;11.96;70.03
9740;BME280;4909;42.680;26.324;2023-04-24T00:53:33;98492.44;;;11.91;70.45
9740;BME280;4909;42.680;26.324;2023-04-24T00:56:00;98467.16;;;11.65;71.20
9740;BME280;4909;42.680;26.324;2023-04-24T00:58:29;98494.59;;;11.65;71.83
9740;BME280;4909;42.680;26.324;2023-04-24T01:00:57;98490.38;;;11.79;71.68
9740;BME280;4909;42.680;26.324;2023-04-24T01:03:28;98468.63;;;11.70;71.49
9740;BME280;4909;42.680;26.324;2023-04-24T01:05:57;98483.50;;;11.74;72.10
9740;BME280;4909;42.680;26.324;2023-04-24T01:08:25;98454.25;;;11.74;71.32
9740;BME280;4909;42.680;26.324;2023-04-24T01:10:53;98487.00;;;11.92;70.88
9740;BME280;4909;42.680;26.324;2023-04-24T01:13:20;98476.00;;;11.83;71.22
9740;BME280;4909;42.680;26.324;2023-04-24T01:15:48;98474.38;;;11.80;71.78
9740;BME280;4909;42.680;26.324;2023-04-24T01:18:15;98465.66;;;11.76;71.33
9740;BME280;4909;42.680;26.324;2023-04-24T01:20:43;98435.56;;;11.59;71.25
9740;BME280;4909;42.680;26.324;2023-04-24T01:23:13;98473.19;;;11.86;70.63
9740;BME280;4909;42.680;26.324;2023-04-24T01:25:41;98467.94;;;11.84;70.84
9740;BME280;4909;42.680;26.324;2023-04-24T01:28:07;98471.06;;;11.92;70.47
9740;BME280;4909;42.680;26.324;2023-04-24T01:30:35;98470.56;;;11.67;70.78
9740;BME280;4909;42.680;26.324;2023-04-24T01:33:02;98435.81;;;11.37;71.58
9740;BME280;4909;42.680;26.324;2023-04-24T01:35:29;98456.34;;;11.68;71.37
9740;BME280;4909;42.680;26.324;2023-04-24T01:37:56;98459.09;;;11.66;70.93
9740;BME280;4909;42.680;26.324;2023-04-24T01:40:24;98453.78;;;11.66;70.75
9740;BME280;4909;42.680;26.324;2023-04-24T01:42:51;98453.63;;;11.69;71.27
9740;BME280;4909;42.680;26.324;2023-04-24T01:45:17;98451.13;;;11.66;72.33
9740;BME280;4909;42.680;26.324;2023-04-24T01:47:45;98454.56;;;11.86;70.00
9740;BME280;4909;42.680;26.324;2023-04-24T01:50:12;98442.69;;;11.75;70.46
9740;BME280;4909;42.680;26.324;2023-04-24T01:52:38;98427.88;;;11.70;69.81
9740;BME280;4909;42.680;26.324;2023-04-24T01:55:06;98452.22;;;11.80;70.13
9740;BME280;4909;42.680;26.324;2023-04-24T01:57:35;98446.41;;;11.71;70.42
9740;BME280;4909;42.680;26.324;2023-04-24T02:00:02;98448.47;;;11.66;70.48
9740;BME280;4909;42.680;26.324;2023-04-24T02:02:32;98448.09;;;11.57;71.24
9740;BME280;4909;42.680;26.324;2023-04-24T02:04:59;98423.84;;;11.46;71.22
9740;BME280;4909;42.680;26.324;2023-04-24T02:07:26;98449.63;;;11.61;71.38
9740;BME280;4909;42.680;26.324;2023-04-24T02:09:52;98440.88;;;11.59;71.37
9740;BME280;4909;42.680;26.324;2023-04-24T02:12:20;98435.31;;;11.63;71.61
9740;BME280;4909;42.680;26.324;2023-04-24T02:14:49;98446.63;;;11.67;70.84
9740;BME280;4909;42.680;26.324;2023-04-24T02:17:15;98446.97;;;11.61;71.26
9740;BME280;4909;42.680;26.324;2023-04-24T02:19:43;98438.69;;;11.50;71.33
9740;BME280;4909;42.680;26.324;2023-04-24T02:22:09;98445.66;;;11.35;72.31
9740;BME280;4909;42.680;26.324;2023-04-24T02:24:37;98418.59;;;11.10;72.30
9740;BME280;4909;42.680;26.324;2023-04-24T02:27:04;98438.75;;;11.14;72.82
9740;BME280;4909;42.680;26.324;2023-04-24T02:29:31;98439.53;;;11.16;73.39
9740;BME280;4909;42.680;26.324;2023-04-24T02:31:59;98441.56;;;11.28;73.03
9740;BME280;4909;42.680;26.324;2023-04-24T02:34:26;98438.31;;;11.23;72.63
9740;BME280;4909;42.680;26.324;2023-04-24T02:36:52;98441.44;;;11.31;72.28
9740;BME280;4909;42.680;26.324;2023-04-24T02:39:20;98448.06;;;11.22;72.70
9740;BME280;4909;42.680;26.324;2023-04-24T02:41:47;98438.75;;;11.14;73.96
9740;BME280;4909;42.680;26.324;2023-04-24T02:44:13;98439.88;;;11.27;73.39
9740;BME280;4909;42.680;26.324;2023-04-24T02:46:40;98446.09;;;11.26;73.68
9740;BME280;4909;42.680;26.324;2023-04-24T02:49:09;98442.03;;;11.19;73.64
9740;BME280;4909;42.680;26.324;2023-04-24T02:51:37;98444.28;;;11.09;73.76
9740;BME280;4909;42.680;26.324;2023-04-24T02:54:07;98438.38;;;11.21;73.35
9740;BME280;4909;42.680;26.324;2023-04-24T02:56:34;98429.25;;;11.27;73.19
9740;BME280;4909;42.680;26.324;2023-04-24T02:59:01;98450.41;;;11.28;72.34
9740;BME280;4909;42.680;26.324;2023-04-24T03:01:28;98448.75;;;11.26;72.79
9740;BME280;4909;42.680;26.324;2023-04-24T03:03:55;98443.63;;;11.23;72.75
9740;BME280;4909;42.680;26.324;2023-04-24T03:06:23;98445.31;;;11.24;73.05
9740;BME280;4909;42.680;26.324;2023-04-24T03:08:50;98443.63;;;11.23;73.10
9740;BME280;4909;42.680;26.324;2023-04-24T03:11:16;98439.59;;;11.14;73.03
9740;BME280;4909;42.680;26.324;2023-04-24T03:13:43;98422.97;;;11.11;72.82
9740;BME280;4909;42.680;26.324;2023-04-24T03:16:10;98433.47;;;10.95;75.08
9740;BME280;4909;42.680;26.324;2023-04-24T03:18:37;98432.31;;;11.01;73.91
9740;BME280;4909;42.680;26.324;2023-04-24T03:21:04;98410.50;;;10.94;73.92
9740;BME280;4909;42.680;26.324;2023-04-24T03:23:32;98435.78;;;11.03;74.01
9740;BME280;4909;42.680;26.324;2023-04-24T03:25:58;98418.19;;;11.00;74.16
9740;BME280;4909;42.680;26.324;2023-04-24T03:28:26;98425.84;;;11.06;73.61
9740;BME280;4909;42.680;26.324;2023-04-24T03:30:52;98434.63;;;11.08;74.01
9740;BME280;4909;42.680;26.324;2023-04-24T03:33:19;98443.50;;;11.07;74.09
9740;BME280;4909;42.680;26.324;2023-04-24T03:35:46;98444.19;;;10.94;75.75
9740;BME280;4909;42.680;26.324;2023-04-24T03:38:13;98451.53;;;11.06;75.15
9740;BME280;4909;42.680;26.324;2023-04-24T03:40:41;98453.03;;;11.11;74.36
9740;BME280;4909;42.680;26.324;2023-04-24T03:43:08;98446.69;;;11.14;73.56
9740;BME280;4909;42.680;26.324;2023-04-24T03:45:35;98434.81;;;10.86;74.90
9740;BME280;4909;42.680;26.324;2023-04-24T03:48:01;98444.09;;;10.95;74.55
9740;BME280;4909;42.680;26.324;2023-04-24T03:50:28;98434.97;;;11.01;74.65
9740;BME280;4909;42.680;26.324;2023-04-24T03:52:55;98459.06;;;11.15;74.10
9740;BME280;4909;42.680;26.324;2023-04-24T03:55:22;98446.88;;;11.11;74.09
9740;BME280;4909;42.680;26.324;2023-04-24T03:57:50;98436.00;;;11.15;73.95
9740;BME280;4909;42.680;26.324;2023-04-24T04:00:17;98455.56;;;11.31;73.69
9740;BME280;4909;42.680;26.324;2023-04-24T04:02:44;98427.66;;;11.06;73.82
9740;BME280;4909;42.680;26.324;2023-04-24T04:05:10;98456.56;;;11.12;73.83
9740;BME280;4909;42.680;26.324;2023-04-24T04:07:37;98456.00;;;11.05;74.76
9740;BME280;4909;42.680;26.324;2023-04-24T04:10:05;98451.78;;;11.01;75.02
9740;BME280;4909;42.680;26.324;2023-04-24T04:12:32;98448.75;;;11.26;73.67
9740;BME280;4909;42.680;26.324;2023-04-24T04:15:00;98460.88;;;11.49;72.83
9740;BME280;4909;42.680;26.324;2023-04-24T04:17:27;98457.06;;;11.54;72.16
9740;BME280;4909;42.680;26.324;2023-04-24T04:19:54;98465.50;;;11.45;72.78
9740;BME280;4909;42.680;26.324;2023-04-24T04:22:21;98464.31;;;11.33;75.07
9740;BME280;4909;42.680;26.324;2023-04-24T04:24:48;98462.22;;;11.40;75.09
9740;BME280;4909;42.680;26.324;2023-04-24T04:27:16;98459.16;;;11.82;73.07
9740;BME280;4909;42.680;26.324;2023-04-24T04:29:44;98468.88;;;12.16;72.29
9740;BME280;4909;42.680;26.324;2023-04-24T04:32:12;98450.44;;;12.13;71.25
9740;BME280;4909;42.680;26.324;2023-04-24T04:34:39;98471.94;;;12.41;70.86
9740;BME280;4909;42.680;26.324;2023-04-24T04:37:06;98463.41;;;12.68;69.09
9740;BME280;4909;42.680;26.324;2023-04-24T04:39:32;98477.22;;;12.90;67.55
9740;BME280;4909;42.680;26.324;2023-04-24T04:41:59;98472.78;;;13.52;65.25
9740;BME280;4909;42.680;26.324;2023-04-24T04:44:26;98458.63;;;13.65;64.71
9740;BME280;4909;42.680;26.324;2023-04-24T04:46:54;98443.16;;;13.56;65.42
9740;BME280;4909;42.680;26.324;2023-04-24T04:49:23;98473.94;;;13.62;65.67
9740;BME280;4909;42.680;26.324;2023-04-24T04:51:50;98469.34;;;13.49;66.23
9740;BME280;4909;42.680;26.324;2023-04-24T04:54:17;98477.91;;;13.40;66.46
9740;BME280;4909;42.680;26.324;2023-04-24T04:56:44;98473.25;;;13.28;67.00
9740;BME280;4909;42.680;26.324;2023-04-24T04:59:10;98477.75;;;13.12;67.00
9740;BME280;4909;42.680;26.324;2023-04-24T05:01:38;98474.75;;;13.18;66.58
9740;BME280;4909;42.680;26.324;2023-04-24T05:04:05;98458.31;;;13.10;67.39
9740;BME280;4909;42.680;26.324;2023-04-24T05:06:33;98476.00;;;13.27;67.32
9740;BME280;4909;42.680;26.324;2023-04-24T05:09:00;98463.81;;;13.23;66.99
9740;BME280;4909;42.680;26.324;2023-04-24T05:11:27;98448.53;;;13.26;67.28
9740;BME280;4909;42.680;26.324;2023-04-24T05:13:54;98465.50;;;13.39;66.56
9740;BME280;4909;42.680;26.324;2023-04-24T05:16:20;98461.34;;;13.49;66.26
9740;BME280;4909;42.680;26.324;2023-04-24T05:18:47;98459.81;;;13.45;67.00
9740;BME280;4909;42.680;26.324;2023-04-24T05:21:14;98461.09;;;13.54;66.74
9740;BME280;4909;42.680;26.324;2023-04-24T05:23:42;98454.03;;;13.53;65.97
9740;BME280;4909;42.680;26.324;2023-04-24T05:26:09;98444.16;;;13.55;66.84
9740;BME280;4909;42.680;26.324;2023-04-24T05:28:36;98444.66;;;13.76;66.95
9740;BME280;4909;42.680;26.324;2023-04-24T05:31:03;98444.66;;;13.76;65.99
9740;BME280;4909;42.680;26.324;2023-04-24T05:33:29;98457.13;;;13.89;66.60
9740;BME280;4909;42.680;26.324;2023-04-24T05:35:56;98442.84;;;13.76;66.81
9740;BME280;4909;42.680;26.324;2023-04-24T05:38:23;98446.75;;;13.85;66.97
9740;BME280;4909;42.680;26.324;2023-04-24T05:40:51;98451.63;;;13.92;67.31
9740;BME280;4909;42.680;26.324;2023-04-24T05:43:18;98453.84;;;14.14;67.29
9740;BME280;4909;42.680;26.324;2023-04-24T05:45:45;98464.94;;;14.51;64.85
9740;BME280;4909;42.680;26.324;2023-04-24T05:48:11;98462.84;;;14.42;64.72
9740;BME280;4909;42.680;26.324;2023-04-24T05:50:38;98459.50;;;14.38;64.53
9740;BME280;4909;42.680;26.324;2023-04-24T05:53:05;98430.66;;;13.72;66.42
9740;BME280;4909;42.680;26.324;2023-04-24T05:55:33;98453.94;;;14.13;65.74
9740;BME280;4909;42.680;26.324;2023-04-24T05:58:01;98461.56;;;14.33;64.88
9740;BME280;4909;42.680;26.324;2023-04-24T06:00:28;98469.44;;;14.36;64.05
9740;BME280;4909;42.680;26.324;2023-04-24T06:02:55;98444.41;;;14.23;63.69
9740;BME280;4909;42.680;26.324;2023-04-24T06:05:21;98467.31;;;14.41;64.52
9740;BME280;4909;42.680;26.324;2023-04-24T06:07:48;98468.53;;;14.64;64.45
9740;BME280;4909;42.680;26.324;2023-04-24T06:10:15;98471.97;;;14.66;64.91
9740;BME280;4909;42.680;26.324;2023-04-24T06:12:42;98473.84;;;14.78;64.38
9740;BME280;4909;42.680;26.324;2023-04-24T06:15:10;98466.53;;;14.53;62.86
9740;BME280;4909;42.680;26.324;2023-04-24T06:17:38;98473.78;;;14.79;62.48
9740;BME280;4909;42.680;26.324;2023-04-24T06:20:05;98464.31;;;14.74;63.58
9740;BME280;4909;42.680;26.324;2023-04-24T06:22:33;98467.94;;;14.73;62.93
9740;BME280;4909;42.680;26.324;2023-04-24T06:25:00;98465.69;;;14.53;64.26
9740;BME280;4909;42.680;26.324;2023-04-24T06:27:27;98470.63;;;14.73;63.87
9740;BME280;4909;42.680;26.324;2023-04-24T06:29:54;98441.28;;;14.45;64.90
9740;BME280;4909;42.680;26.324;2023-04-24T06:32:23;98457.78;;;14.92;64.15
9740;BME280;4909;42.680;26.324;2023-04-24T06:34:51;98461.13;;;15.22;61.59
9740;BME280;4909;42.680;26.324;2023-04-24T06:37:36;98470.88;;;15.23;61.70
9740;BME280;4909;42.680;26.324;2023-04-24T06:40:04;98467.69;;;15.31;61.53
9740;BME280;4909;42.680;26.324;2023-04-24T06:42:31;98468.13;;;15.52;60.09
9740;BME280;4909;42.680;26.324;2023-04-24T06:44:57;98464.50;;;15.65;59.40
9740;BME280;4909;42.680;26.324;2023-04-24T06:47:26;98466.69;;;15.98;59.40
9740;BME280;4909;42.680;26.324;2023-04-24T06:49:53;98463.69;;;16.03;58.33
9740;BME280;4909;42.680;26.324;2023-04-24T06:52:20;98468.41;;;16.12;58.07
9740;BME280;4909;42.680;26.324;2023-04-24T06:54:47;98474.19;;;15.93;57.53
9740;BME280;4909;42.680;26.324;2023-04-24T06:57:14;98475.38;;;16.15;57.48
9740;BME280;4909;42.680;26.324;2023-04-24T06:59:41;98482.69;;;16.25;56.62
9740;BME280;4909;42.680;26.324;2023-04-24T07:02:08;98459.66;;;16.10;56.90
9740;BME280;4909;42.680;26.324;2023-04-24T07:04:36;98474.97;;;16.21;56.66
9740;BME280;4909;42.680;26.324;2023-04-24T07:07:03;98465.84;;;16.23;57.77
9740;BME280;4909;42.680;26.324;2023-04-24T07:09:31;98470.22;;;15.99;57.49
9740;BME280;4909;42.680;26.324;2023-04-24T07:11:58;98470.25;;;16.12;56.08
9740;BME280;4909;42.680;26.324;2023-04-24T07:14:24;98471.81;;;16.52;56.34
9740;BME280;4909;42.680;26.324;2023-04-24T07:16:51;98473.03;;;16.10;56.62
9740;BME280;4909;42.680;26.324;2023-04-24T07:19:18;98468.19;;;16.28;57.57
9740;BME280;4909;42.680;26.324;2023-04-24T07:21:46;98465.59;;;16.51;57.22
9740;BME280;4909;42.680;26.324;2023-04-24T07:24:13;98465.84;;;16.61;57.04
9740;BME280;4909;42.680;26.324;2023-04-24T07:26:40;98470.84;;;16.78;57.00
9740;BME280;4909;42.680;26.324;2023-04-24T07:29:06;98468.56;;;16.98;55.39
9740;BME280;4909;42.680;26.324;2023-04-24T07:31:33;98469.47;;;17.09;55.25
9740;BME280;4909;42.680;26.324;2023-04-24T07:34:00;98475.63;;;16.99;54.60
9740;BME280;4909;42.680;26.324;2023-04-24T07:36:27;98460.69;;;16.71;54.93
9740;BME280;4909;42.680;26.324;2023-04-24T07:38:55;98475.88;;;17.19;53.52
9740;BME280;4909;42.680;26.324;2023-04-24T07:41:22;98462.59;;;17.42;54.22
9740;BME280;4909;42.680;26.324;2023-04-24T07:43:49;98464.41;;;17.17;54.57
9740;BME280;4909;42.680;26.324;2023-04-24T07:46:16;98465.31;;;17.29;55.25
9740;BME280;4909;42.680;26.324;2023-04-24T07:48:43;98466.66;;;17.58;53.13
9740;BME280;4909;42.680;26.324;2023-04-24T07:51:11;98463.88;;;17.84;53.29
9740;BME280;4909;42.680;26.324;2023-04-24T07:53:38;98460.78;;;18.23;51.25
9740;BME280;4909;42.680;26.324;2023-04-24T07:56:07;98462.38;;;18.14;50.72
9740;BME280;4909;42.680;26.324;2023-04-24T07:58:34;98446.72;;;18.08;50.55
9740;BME280;4909;42.680;26.324;2023-04-24T08:01:00;98458.47;;;18.41;51.04
9740;BME280;4909;42.680;26.324;2023-04-24T08:03:28;98435.78;;;18.67;50.40
9740;BME280;4909;42.680;26.324;2023-04-24T08:05:55;98459.50;;;19.27;48.44
9740;BME280;4909;42.680;26.324;2023-04-24T08:08:22;98452.97;;;19.84;46.95
9740;BME280;4909;42.680;26.324;2023-04-24T08:10:49;98455.91;;;20.43;45.35
9740;BME280;4909;42.680;26.324;2023-04-24T08:13:17;98459.97;;;20.58;43.60
9740;BME280;4909;42.680;26.324;2023-04-24T08:15:44;98447.91;;;20.11;45.19
9740;BME280;4909;42.680;26.324;2023-04-24T08:18:11;98447.22;;;20.19;45.36
9740;BME280;4909;42.680;26.324;2023-04-24T08:20:39;98448.22;;;20.38;44.96
9740;BME280;4909;42.680;26.324;2023-04-24T08:23:05;98436.19;;;20.22;45.91
9740;BME280;4909;42.680;26.324;2023-04-24T08:25:32;98439.97;;;20.30;45.17
9740;BME280;4909;42.680;26.324;2023-04-24T08:28:01;98441.81;;;20.60;45.58
9740;BME280;4909;42.680;26.324;2023-04-24T08:30:29;98435.44;;;20.61;45.94
9740;BME280;4909;42.680;26.324;2023-04-24T08:32:57;98431.84;;;20.51;45.46
9740;BME280;4909;42.680;26.324;2023-04-24T08:35:24;98438.09;;;20.52;46.01
9740;BME280;4909;42.680;26.324;2023-04-24T08:37:51;98435.34;;;20.42;45.71
9740;BME280;4909;42.680;26.324;2023-04-24T08:40:22;98437.44;;;20.38;46.76
9740;BME280;4909;42.680;26.324;2023-04-24T08:42:50;98435.69;;;20.58;46.27
9740;BME280;4909;42.680;26.324;2023-04-24T08:45:20;98436.59;;;20.68;46.16
9740;BME280;4909;42.680;26.324;2023-04-24T08:47:49;98438.03;;;20.42;46.65
9740;BME280;4909;42.680;26.324;2023-04-24T08:50:17;98388.09;;;20.17;46.24
9740;BME280;4909;42.680;26.324;2023-04-24T08:52:43;98432.81;;;20.29;46.47
9740;BME280;4909;42.680;26.324;2023-04-24T08:55:11;98435.59;;;20.69;46.72
9740;BME280;4909;42.680;26.324;2023-04-24T08:57:37;98426.63;;;21.09;46.03
9740;BME280;4909;42.680;26.324;2023-04-24T09:00:06;98436.19;;;21.22;43.99
9740;BME280;4909;42.680;26.324;2023-04-24T09:02:34;98428.97;;;21.52;44.98
9740;BME280;4909;42.680;26.324;2023-04-24T09:05:02;98435.53;;;21.68;45.01
9740;BME280;4909;42.680;26.324;2023-04-24T09:07:32;98427.25;;;21.80;43.27
9740;BME280;4909;42.680;26.324;2023-04-24T09:10:02;98411.06;;;21.32;44.17
9740;BME280;4909;42.680;26.324;2023-04-24T09:12:28;98415.59;;;21.79;44.38
9740;BME280;4909;42.680;26.324;2023-04-24T09:14:56;98426.53;;;22.16;43.60
9740;BME280;4909;42.680;26.324;2023-04-24T09:17:24;98421.72;;;22.10;43.33
9740;BME280;4909;42.680;26.324;2023-04-24T09:19:52;98428.97;;;21.90;42.27
9740;BME280;4909;42.680;26.324;2023-04-24T09:22:21;98404.16;;;20.99;44.23
9740;BME280;4909;42.680;26.324;2023-04-24T09:24:48;98425.19;;;20.55;46.24
9740;BME280;4909;42.680;26.324;2023-04-24T09:27:15;98424.41;;;20.74;46.23
9740;BME280;4909;42.680;26.324;2023-04-24T09:29:53;98420.63;;;20.86;45.68
9740;BME280;4909;42.680;26.324;2023-04-24T09:32:22;98420.75;;;20.85;46.53
9740;BME280;4909;42.680;26.324;2023-04-24T09:35:05;98407.78;;;20.69;46.29
9740;BME280;4909;42.680;26.324;2023-04-24T09:37:37;98418.59;;;19.97;48.45
9740;BME280;4909;42.680;26.324;2023-04-24T09:40:11;98409.44;;;20.09;49.48
9740;BME280;4909;42.680;26.324;2023-04-24T09:42:39;98401.31;;;19.58;49.34
9740;BME280;4909;42.680;26.324;2023-04-24T09:45:09;98409.53;;;19.77;50.37
9740;BME280;4909;42.680;26.324;2023-04-24T09:47:37;98418.47;;;19.78;49.40
9740;BME280;4909;42.680;26.324;2023-04-24T09:50:14;98413.91;;;19.58;50.88
9740;BME280;4909;42.680;26.324;2023-04-24T09:52:43;98400.16;;;19.92;50.32
9740;BME280;4909;42.680;26.324;2023-04-24T09:55:12;98407.72;;;20.29;49.53
9740;BME280;4909;42.680;26.324;2023-04-24T09:57:50;98408.97;;;20.46;48.36
9740;BME280;4909;42.680;26.324;2023-04-24T10:00:24;98407.97;;;20.87;48.66
9740;BME280;4909;42.680;26.324;2023-04-24T10:02:56;98398.66;;;21.10;47.35
9740;BME280;4909;42.680;26.324;2023-04-24T10:05:24;98401.13;;;20.82;46.64
9740;BME280;4909;42.680;26.324;2023-04-24T10:07:56;98355.50;;;20.30;49.07
9740;BME280;4909;42.680;26.324;2023-04-24T10:10:23;98404.38;;;20.67;49.08
9740;BME280;4909;42.680;26.324;2023-04-24T10:12:51;98399.16;;;20.45;48.61
9740;BME280;4909;42.680;26.324;2023-04-24T10:15:18;98369.22;;;20.17;49.03
9740;BME280;4909;42.680;26.324;2023-04-24T10:17:47;98388.53;;;20.22;50.46
9740;BME280;4909;42.680;26.324;2023-04-24T10:20:19;98352.41;;;19.74;50.60
9740;BME280;4909;42.680;26.324;2023-04-24T10:22:48;98358.16;;;19.48;51.65
9740;BME280;4909;42.680;26.324;2023-04-24T10:25:18;98388.69;;;20.00;52.64
9740;BME280;4909;42.680;26.324;2023-04-24T10:27:47;98385.28;;;19.98;50.49
9740;BME280;4909;42.680;26.324;2023-04-24T10:30:14;98378.81;;;20.10;50.88
9740;BME280;4909;42.680;26.324;2023-04-24T10:32:41;98359.25;;;20.08;50.80
9740;BME280;4909;42.680;26.324;2023-04-24T10:35:09;98374.22;;;20.22;49.94
9740;BME280;4909;42.680;26.324;2023-04-24T10:37:38;98369.38;;;20.46;50.17
9740;BME280;4909;42.680;26.324;2023-04-24T10:40:07;98341.34;;;19.98;50.15
9740;BME280;4909;42.680;26.324;2023-04-24T10:42:39;98364.50;;;20.30;51.33
9740;BME280;4909;42.680;26.324;2023-04-24T10:45:07;98363.25;;;20.44;49.02
9740;BME280;4909;42.680;26.324;2023-04-24T10:47:42;98369.34;;;20.36;49.49
9740;BME280;4909;42.680;26.324;2023-04-24T10:50:10;98352.69;;;20.01;50.69
9740;BME280;4909;42.680;26.324;2023-04-24T10:52:46;98347.63;;;20.08;51.19
9740;BME280;4909;42.680;26.324;2023-04-24T10:55:14;98360.28;;;20.17;51.06
9740;BME280;4909;42.680;26.324;2023-04-24T10:58:01;98361.09;;;20.08;51.02
9740;BME280;4909;42.680;26.324;2023-04-24T11:00:28;98352.44;;;20.04;52.08
9740;BME280;4909;42.680;26.324;2023-04-24T11:02:56;98359.78;;;20.02;50.09
9740;BME280;4909;42.680;26.324;2023-04-24T11:05:49;98355.34;;;19.71;52.54
9740;BME280;4909;42.680;26.324;2023-04-24T11:08:24;98340.09;;;19.39;52.82
9740;BME280;4909;42.680;26.324;2023-04-24T11:10:57;98347.09;;;19.31;53.39
9740;BME280;4909;42.680;26.324;2023-04-24T11:13:27;98344.72;;;19.37;52.88
9740;BME280;4909;42.680;26.324;2023-04-24T11:16:13;98318.28;;;19.42;52.80
9740;BME280;4909;42.680;26.324;2023-04-24T11:18:42;98336.31;;;19.83;52.51
9740;BME280;4909;42.680;26.324;2023-04-24T11:21:12;98319.97;;;19.55;52.97
9740;BME280;4909;42.680;26.324;2023-04-24T11:23:39;98331.66;;;19.65;53.70
9740;BME280;4909;42.680;26.324;2023-04-24T11:26:14;98325.47;;;19.53;53.77
9740;BME280;4909;42.680;26.324;2023-04-24T11:28:48;98306.44;;;19.13;54.77
9740;BME280;4909;42.680;26.324;2023-04-24T11:31:35;98321.81;;;19.22;54.67
9740;BME280;4909;42.680;26.324;2023-04-24T11:34:08;98313.88;;;19.41;55.32
9740;BME280;4909;42.680;26.324;2023-04-24T11:36:36;98304.50;;;19.77;53.33
9740;BME280;4909;42.680;26.324;2023-04-24T11:39:03;98300.19;;;19.95;53.27
9740;BME280;4909;42.680;26.324;2023-04-24T11:41:30;98305.47;;;19.97;53.53
9740;BME280;4909;42.680;26.324;2023-04-24T11:43:58;98297.63;;;19.84;53.37
9740;BME280;4909;42.680;26.324;2023-04-24T11:46:29;98293.50;;;19.90;54.37
9740;BME280;4909;42.680;26.324;2023-04-24T11:48:57;98300.31;;;19.84;53.01
9740;BME280;4909;42.680;26.324;2023-04-24T11:51:26;98283.09;;;19.76;53.53
9740;BME280;4909;42.680;26.324;2023-04-24T11:53:53;98274.19;;;19.85;53.81
9740;BME280;4909;42.680;26.324;2023-04-24T11:56:21;98272.41;;;19.95;52.56
9740;BME280;4909;42.680;26.324;2023-04-24T11:58:48;98289.47;;;20.05;53.82
9740;BME280;4909;42.680;26.324;2023-04-24T12:01:16;98297.69;;;19.52;54.15
9740;BME280;4909;42.680;26.324;2023-04-24T12:03:47;98285.09;;;19.74;54.70
9740;BME280;4909;42.680;26.324;2023-04-24T12:06:14;98270.84;;;19.92;54.75
9740;BME280;4909;42.680;26.324;2023-04-24T12:08:40;98268.94;;;20.04;53.72
9740;BME280;4909;42.680;26.324;2023-04-24T12:11:07;98269.22;;;20.11;53.13
9740;BME280;4909;42.680;26.324;2023-04-24T12:13:35;98265.97;;;19.77;54.12
9740;BME280;4909;42.680;26.324;2023-04-24T12:16:03;98265.03;;;19.67;55.22
9740;BME280;4909;42.680;26.324;2023-04-24T12:18:32;98262.09;;;19.70;55.76
9740;BME280;4909;42.680;26.324;2023-04-24T12:21:18;98256.97;;;19.97;55.40
9740;BME280;4909;42.680;26.324;2023-04-24T12:23:45;98246.66;;;20.02;56.51
9740;BME280;4909;42.680;26.324;2023-04-24T12:26:16;98252.25;;;20.29;54.51
9740;BME280;4909;42.680;26.324;2023-04-24T12:28:45;98251.38;;;20.29;53.49
9740;BME280;4909;42.680;26.324;2023-04-24T12:31:12;98251.00;;;20.33;53.09
9740;BME280;4909;42.680;26.324;2023-04-24T12:33:40;98242.38;;;20.49;52.03
9740;BME280;4909;42.680;26.324;2023-04-24T12:36:10;98238.53;;;20.32;52.31
9740;BME280;4909;42.680;26.324;2023-04-24T12:38:38;98250.69;;;20.27;52.54
9740;BME280;4909;42.680;26.324;2023-04-24T12:41:07;98243.09;;;20.32;53.45
9740;BME280;4909;42.680;26.324;2023-04-24T12:43:35;98237.91;;;20.29;54.67
9740;BME280;4909;42.680;26.324;2023-04-24T12:46:02;98235.59;;;20.15;54.32
9740;BME280;4909;42.680;26.324;2023-04-24T12:48:29;98228.25;;;20.17;54.21
9740;BME280;4909;42.680;26.324;2023-04-24T12:50:58;98195.91;;;20.07;53.98
9740;BME280;4909;42.680;26.324;2023-04-24T12:53:27;98220.75;;;20.30;54.94
9740;BME280;4909;42.680;26.324;2023-04-24T12:55:56;98215.97;;;20.33;54.55
9740;BME280;4909;42.680;26.324;2023-04-24T12:58:23;98181.72;;;20.15;54.88
9740;BME280;4909;42.680;26.324;2023-04-24T13:00:50;98216.84;;;20.44;55.22
9740;BME280;4909;42.680;26.324;2023-04-24T13:03:18;98210.19;;;20.38;56.47
9740;BME280;4909;42.680;26.324;2023-04-24T13:05:45;98200.41;;;20.47;55.31
9740;BME280;4909;42.680;26.324;2023-04-24T13:08:13;98201.75;;;20.22;55.62
9740;BME280;4909;42.680;26.324;2023-04-24T13:10:40;98204.56;;;20.11;55.79
9740;BME280;4909;42.680;26.324;2023-04-24T13:13:07;98204.09;;;19.66;56.92
9740;BME280;4909;42.680;26.324;2023-04-24T13:15:34;98203.72;;;19.70;57.22